sensor_id;sensor_type;location;lat;lon;timestamp;P1;durP1;ratioP1;P2;durP2;ratioP2
76155;SDS011;64906;51.290;7.348;2023-02-01T00:01:46;51.92;;;26.67;;
76155;SDS011;64906;51.290;7.348;2023-02-01T00:04:12;53.72;;;26.23;;
76155;SDS011;64906;51.290;7.348;2023-02-01T00:06:38;53.35;;;25.75;;
76155;SDS011;64906;51.290;7.348;2023-02-01T00:09:04;53.88;;;24.73;;
76155;SDS011;64906;51.290;7.348;2023-02-01T00:11:30;55.58;;;24.73;;
76155;SDS011;64906;51.290;7.348;2023-02-01T00:13:56;53.13;;;26.20;;
76155;SDS011;64906;51.290;7.348;2023-02-01T00:16:26;57.83;;;24.52;;
76155;SDS011;64906;51.290;7.348;2023-02-01T00:19:01;57.28;;;24.48;;
76155;SDS011;64906;51.290;7.348;2023-02-01T00:21:31;53.72;;;23.38;;
76155;SDS011;64906;51.290;7.348;2023-02-01T00:23:57;51.28;;;23.27;;
76155;SDS011;64906;51.290;7.348;2023-02-01T00:26:34;49.17;;;23.92;;
76155;SDS011;64906;51.290;7.348;2023-02-01T00:29:03;54.35;;;23.60;;
76155;SDS011;64906;51.290;7.348;2023-02-01T00:31:31;47.40;;;22.15;;
76155;SDS011;64906;51.290;7.348;2023-02-01T00:33:57;55.25;;;24.27;;
76155;SDS011;64906;51.290;7.348;2023-02-01T00:36:23;48.17;;;23.70;;
76155;SDS011;64906;51.290;7.348;2023-02-01T00:38:49;52.28;;;23.02;;
76155;SDS011;64906;51.290;7.348;2023-02-01T00:41:16;48.08;;;23.60;;
76155;SDS011;64906;51.290;7.348;2023-02-01T00:43:44;49.00;;;24.48;;
76155;SDS011;64906;51.290;7.348;2023-02-01T00:46:11;50.15;;;22.48;;
76155;SDS011;64906;51.290;7.348;2023-02-01T00:48:38;46.40;;;24.92;;
76155;SDS011;64906;51.290;7.348;2023-02-01T00:51:06;51.03;;;24.35;;
76155;SDS011;64906;51.290;7.348;2023-02-01T00:53:34;49.10;;;23.55;;
76155;SDS011;64906;51.290;7.348;2023-02-01T00:56:01;49.97;;;21.73;;
76155;SDS011;64906;51.290;7.348;2023-02-01T00:58:26;48.72;;;23.95;;
76155;SDS011;64906;51.290;7.348;2023-02-01T01:03:40;51.97;;;22.38;;
76155;SDS011;64906;51.290;7.348;2023-02-01T01:06:15;46.25;;;20.80;;
76155;SDS011;64906;51.290;7.348;2023-02-01T01:08:43;51.97;;;21.75;;
76155;SDS011;64906;51.290;7.348;2023-02-01T01:11:13;51.03;;;22.58;;
76155;SDS011;64906;51.290;7.348;2023-02-01T01:13:45;50.60;;;21.70;;
76155;SDS011;64906;51.290;7.348;2023-02-01T01:16:12;48.83;;;22.23;;
76155;SDS011;64906;51.290;7.348;2023-02-01T01:18:39;54.22;;;21.77;;
76155;SDS011;64906;51.290;7.348;2023-02-01T01:21:06;50.55;;;20.58;;
76155;SDS011;64906;51.290;7.348;2023-02-01T01:23:33;49.80;;;21.00;;
76155;SDS011;64906;51.290;7.348;2023-02-01T01:26:04;45.20;;;23.83;;
76155;SDS011;64906;51.290;7.348;2023-02-01T01:30:57;46.60;;;21.08;;
76155;SDS011;64906;51.290;7.348;2023-02-01T01:33:23;52.35;;;21.98;;
76155;SDS011;64906;51.290;7.348;2023-02-01T01:35:49;55.75;;;21.27;;
76155;SDS011;64906;51.290;7.348;2023-02-01T01:38:14;50.67;;;21.00;;
76155;SDS011;64906;51.290;7.348;2023-02-01T01:40:44;39.42;;;20.20;;
76155;SDS011;64906;51.290;7.348;2023-02-01T01:43:14;46.80;;;20.60;;
76155;SDS011;64906;51.290;7.348;2023-02-01T01:45:41;46.00;;;20.88;;
76155;SDS011;64906;51.290;7.348;2023-02-01T01:48:24;46.22;;;19.38;;
76155;SDS011;64906;51.290;7.348;2023-02-01T01:50:57;46.70;;;19.85;;
76155;SDS011;64906;51.290;7.348;2023-02-01T01:53:41;43.65;;;18.67;;
76155;SDS011;64906;51.290;7.348;2023-02-01T01:56:13;39.75;;;19.77;;
76155;SDS011;64906;51.290;7.348;2023-02-01T01:58:40;48.00;;;20.02;;
76155;SDS011;64906;51.290;7.348;2023-02-01T02:01:07;42.88;;;18.95;;
76155;SDS011;64906;51.290;7.348;2023-02-01T02:03:35;51.35;;;20.45;;
76155;SDS011;64906;51.290;7.348;2023-02-01T02:06:05;45.58;;;19.85;;
76155;SDS011;64906;51.290;7.348;2023-02-01T02:08:56;44.20;;;19.63;;
76155;SDS011;64906;51.290;7.348;2023-02-01T02:11:22;47.97;;;18.92;;
76155;SDS011;64906;51.290;7.348;2023-02-01T02:13:51;45.63;;;19.35;;
76155;SDS011;64906;51.290;7.348;2023-02-01T02:16:24;46.42;;;19.10;;
76155;SDS011;64906;51.290;7.348;2023-02-01T02:27:51;53.33;;;18.88;;
76155;SDS011;64906;51.290;7.348;2023-02-01T02:36:15;36.95;;;17.10;;
76155;SDS011;64906;51.290;7.348;2023-02-01T02:39:00;38.97;;;17.52;;
76155;SDS011;64906;51.290;7.348;2023-02-01T02:45:01;42.13;;;17.88;;
76155;SDS011;64906;51.290;7.348;2023-02-01T02:51:15;38.53;;;16.10;;
76155;SDS011;64906;51.290;7.348;2023-02-01T02:54:10;44.40;;;18.25;;
76155;SDS011;64906;51.290;7.348;2023-02-01T02:56:58;44.58;;;17.55;;
76155;SDS011;64906;51.290;7.348;2023-02-01T02:59:48;43.40;;;17.35;;
76155;SDS011;64906;51.290;7.348;2023-02-01T03:02:33;43.00;;;18.70;;
76155;SDS011;64906;51.290;7.348;2023-02-01T03:05:19;45.03;;;17.17;;
76155;SDS011;64906;51.290;7.348;2023-02-01T03:07:49;45.33;;;17.58;;
76155;SDS011;64906;51.290;7.348;2023-02-01T03:10:24;47.25;;;17.98;;
76155;SDS011;64906;51.290;7.348;2023-02-01T03:13:17;37.70;;;17.90;;
76155;SDS011;64906;51.290;7.348;2023-02-01T03:16:07;41.40;;;16.35;;
76155;SDS011;64906;51.290;7.348;2023-02-01T03:21:10;42.65;;;16.45;;
76155;SDS011;64906;51.290;7.348;2023-02-01T03:23:49;42.08;;;16.13;;
76155;SDS011;64906;51.290;7.348;2023-02-01T03:26:18;44.15;;;15.73;;
76155;SDS011;64906;51.290;7.348;2023-02-01T03:28:52;45.65;;;16.45;;
76155;SDS011;64906;51.290;7.348;2023-02-01T03:31:23;33.28;;;15.45;;
76155;SDS011;64906;51.290;7.348;2023-02-01T03:33:49;34.60;;;15.48;;
76155;SDS011;64906;51.290;7.348;2023-02-01T03:36:35;40.20;;;16.13;;
76155;SDS011;64906;51.290;7.348;2023-02-01T03:41:43;43.30;;;16.65;;
76155;SDS011;64906;51.290;7.348;2023-02-01T03:47:25;42.85;;;14.57;;
76155;SDS011;64906;51.290;7.348;2023-02-01T03:49:55;41.63;;;15.52;;
76155;SDS011;64906;51.290;7.348;2023-02-01T03:52:29;37.55;;;15.50;;
76155;SDS011;64906;51.290;7.348;2023-02-01T03:55:01;41.28;;;14.38;;
76155;SDS011;64906;51.290;7.348;2023-02-01T03:57:29;38.72;;;15.23;;
76155;SDS011;64906;51.290;7.348;2023-02-01T04:00:43;36.83;;;15.40;;
76155;SDS011;64906;51.290;7.348;2023-02-01T04:02:51;44.83;;;16.38;;
76155;SDS011;64906;51.290;7.348;2023-02-01T04:05:18;43.78;;;15.45;;
76155;SDS011;64906;51.290;7.348;2023-02-01T04:07:45;37.65;;;14.85;;
76155;SDS011;64906;51.290;7.348;2023-02-01T04:10:11;43.03;;;15.23;;
76155;SDS011;64906;51.290;7.348;2023-02-01T04:12:38;34.78;;;15.45;;
76155;SDS011;64906;51.290;7.348;2023-02-01T04:15:05;35.65;;;14.75;;
76155;SDS011;64906;51.290;7.348;2023-02-01T04:17:31;42.55;;;15.52;;
76155;SDS011;64906;51.290;7.348;2023-02-01T04:19:57;44.53;;;15.43;;
76155;SDS011;64906;51.290;7.348;2023-02-01T04:22:23;42.40;;;14.43;;
76155;SDS011;64906;51.290;7.348;2023-02-01T04:24:48;39.08;;;16.30;;
76155;SDS011;64906;51.290;7.348;2023-02-01T04:27:14;43.05;;;14.07;;
76155;SDS011;64906;51.290;7.348;2023-02-01T04:29:40;39.75;;;14.57;;
76155;SDS011;64906;51.290;7.348;2023-02-01T04:32:06;37.15;;;14.43;;
76155;SDS011;64906;51.290;7.348;2023-02-01T04:34:32;43.42;;;14.63;;
76155;SDS011;64906;51.290;7.348;2023-02-01T04:36:58;38.17;;;14.18;;
76155;SDS011;64906;51.290;7.348;2023-02-01T04:39:24;41.20;;;13.90;;
76155;SDS011;64906;51.290;7.348;2023-02-01T04:41:49;46.58;;;13.80;;
76155;SDS011;64906;51.290;7.348;2023-02-01T04:44:16;43.50;;;14.63;;
76155;SDS011;64906;51.290;7.348;2023-02-01T04:46:43;32.25;;;14.10;;
76155;SDS011;64906;51.290;7.348;2023-02-01T04:49:11;37.92;;;14.00;;
76155;SDS011;64906;51.290;7.348;2023-02-01T04:51:37;33.03;;;13.18;;
76155;SDS011;64906;51.290;7.348;2023-02-01T04:54:04;32.30;;;13.75;;
76155;SDS011;64906;51.290;7.348;2023-02-01T04:56:30;41.28;;;14.80;;
76155;SDS011;64906;51.290;7.348;2023-02-01T04:58:56;39.80;;;13.75;;
76155;SDS011;64906;51.290;7.348;2023-02-01T05:01:22;34.83;;;13.38;;
76155;SDS011;64906;51.290;7.348;2023-02-01T05:03:49;32.53;;;14.55;;
76155;SDS011;64906;51.290;7.348;2023-02-01T05:06:16;36.67;;;13.93;;
76155;SDS011;64906;51.290;7.348;2023-02-01T05:08:42;36.67;;;13.30;;
76155;SDS011;64906;51.290;7.348;2023-02-01T05:11:08;41.60;;;14.52;;
76155;SDS011;64906;51.290;7.348;2023-02-01T05:13:54;34.67;;;13.48;;
76155;SDS011;64906;51.290;7.348;2023-02-01T05:16:20;33.78;;;13.23;;
76155;SDS011;64906;51.290;7.348;2023-02-01T05:18:45;35.97;;;12.45;;
76155;SDS011;64906;51.290;7.348;2023-02-01T05:21:11;31.63;;;12.70;;
76155;SDS011;64906;51.290;7.348;2023-02-01T05:23:37;36.22;;;13.13;;
76155;SDS011;64906;51.290;7.348;2023-02-01T05:26:23;45.72;;;14.88;;
76155;SDS011;64906;51.290;7.348;2023-02-01T05:28:49;34.05;;;12.80;;
76155;SDS011;64906;51.290;7.348;2023-02-01T05:31:16;35.33;;;13.20;;
76155;SDS011;64906;51.290;7.348;2023-02-01T05:33:42;35.97;;;13.23;;
76155;SDS011;64906;51.290;7.348;2023-02-01T05:36:07;38.63;;;12.85;;
76155;SDS011;64906;51.290;7.348;2023-02-01T05:38:33;38.55;;;13.40;;
76155;SDS011;64906;51.290;7.348;2023-02-01T05:40:59;39.13;;;13.10;;
76155;SDS011;64906;51.290;7.348;2023-02-01T05:43:25;40.78;;;12.57;;
76155;SDS011;64906;51.290;7.348;2023-02-01T05:45:51;33.20;;;12.70;;
76155;SDS011;64906;51.290;7.348;2023-02-01T05:48:17;39.97;;;11.93;;
76155;SDS011;64906;51.290;7.348;2023-02-01T05:50:43;36.40;;;13.10;;
76155;SDS011;64906;51.290;7.348;2023-02-01T05:53:09;36.42;;;12.88;;
76155;SDS011;64906;51.290;7.348;2023-02-01T05:55:35;36.65;;;12.68;;
76155;SDS011;64906;51.290;7.348;2023-02-01T05:58:02;38.63;;;12.93;;
76155;SDS011;64906;51.290;7.348;2023-02-01T06:00:28;37.88;;;12.63;;
76155;SDS011;64906;51.290;7.348;2023-02-01T06:02:55;37.10;;;11.80;;
76155;SDS011;64906;51.290;7.348;2023-02-01T06:05:20;37.03;;;12.48;;
76155;SDS011;64906;51.290;7.348;2023-02-01T06:07:46;34.08;;;13.63;;
76155;SDS011;64906;51.290;7.348;2023-02-01T06:10:12;41.92;;;12.60;;
76155;SDS011;64906;51.290;7.348;2023-02-01T06:12:38;36.95;;;12.50;;
76155;SDS011;64906;51.290;7.348;2023-02-01T06:15:04;32.85;;;11.63;;
76155;SDS011;64906;51.290;7.348;2023-02-01T06:17:31;29.92;;;11.88;;
76155;SDS011;64906;51.290;7.348;2023-02-01T06:19:57;35.90;;;12.63;;
76155;SDS011;64906;51.290;7.348;2023-02-01T06:22:22;38.00;;;12.23;;
76155;SDS011;64906;51.290;7.348;2023-02-01T06:24:48;33.50;;;11.48;;
76155;SDS011;64906;51.290;7.348;2023-02-01T06:27:14;43.28;;;12.60;;
76155;SDS011;64906;51.290;7.348;2023-02-01T06:29:40;37.17;;;11.90;;
76155;SDS011;64906;51.290;7.348;2023-02-01T06:32:06;29.63;;;11.68;;
76155;SDS011;64906;51.290;7.348;2023-02-01T06:34:32;32.67;;;11.35;;
76155;SDS011;64906;51.290;7.348;2023-02-01T06:36:59;35.28;;;11.32;;
76155;SDS011;64906;51.290;7.348;2023-02-01T06:39:25;36.03;;;11.68;;
76155;SDS011;64906;51.290;7.348;2023-02-01T06:41:52;41.47;;;12.57;;
76155;SDS011;64906;51.290;7.348;2023-02-01T06:44:18;31.38;;;11.48;;
76155;SDS011;64906;51.290;7.348;2023-02-01T06:46:44;41.38;;;12.32;;
76155;SDS011;64906;51.290;7.348;2023-02-01T06:49:09;28.05;;;11.15;;
76155;SDS011;64906;51.290;7.348;2023-02-01T06:51:35;33.50;;;11.60;;
76155;SDS011;64906;51.290;7.348;2023-02-01T06:54:01;33.22;;;12.25;;
76155;SDS011;64906;51.290;7.348;2023-02-01T06:56:27;38.78;;;11.15;;
76155;SDS011;64906;51.290;7.348;2023-02-01T06:58:53;31.88;;;11.32;;
76155;SDS011;64906;51.290;7.348;2023-02-01T07:01:19;38.33;;;11.52;;
76155;SDS011;64906;51.290;7.348;2023-02-01T07:03:49;31.77;;;10.18;;
76155;SDS011;64906;51.290;7.348;2023-02-01T07:06:16;39.33;;;11.20;;
76155;SDS011;64906;51.290;7.348;2023-02-01T07:08:42;36.47;;;11.15;;
76155;SDS011;64906;51.290;7.348;2023-02-01T07:11:09;36.10;;;12.00;;
76155;SDS011;64906;51.290;7.348;2023-02-01T07:13:36;30.17;;;11.32;;
76155;SDS011;64906;51.290;7.348;2023-02-01T07:16:08;40.40;;;10.77;;
76155;SDS011;64906;51.290;7.348;2023-02-01T07:18:36;34.03;;;11.52;;
76155;SDS011;64906;51.290;7.348;2023-02-01T07:21:02;30.55;;;11.18;;
76155;SDS011;64906;51.290;7.348;2023-02-01T07:23:28;36.35;;;11.43;;
76155;SDS011;64906;51.290;7.348;2023-02-01T07:25:58;27.45;;;11.32;;
76155;SDS011;64906;51.290;7.348;2023-02-01T07:28:26;30.80;;;12.30;;
76155;SDS011;64906;51.290;7.348;2023-02-01T07:30:53;35.92;;;14.20;;
76155;SDS011;64906;51.290;7.348;2023-02-01T07:33:20;40.53;;;13.60;;
76155;SDS011;64906;51.290;7.348;2023-02-01T07:35:48;35.03;;;13.73;;
76155;SDS011;64906;51.290;7.348;2023-02-01T07:38:14;36.45;;;13.93;;
76155;SDS011;64906;51.290;7.348;2023-02-01T07:40:41;32.80;;;13.20;;
76155;SDS011;64906;51.290;7.348;2023-02-01T07:43:07;35.58;;;15.38;;
76155;SDS011;64906;51.290;7.348;2023-02-01T07:45:33;33.60;;;13.43;;
76155;SDS011;64906;51.290;7.348;2023-02-01T07:48:01;42.58;;;15.95;;
76155;SDS011;64906;51.290;7.348;2023-02-01T07:50:28;37.13;;;16.00;;
76155;SDS011;64906;51.290;7.348;2023-02-01T07:52:54;45.65;;;18.65;;
76155;SDS011;64906;51.290;7.348;2023-02-01T07:55:20;44.50;;;17.80;;
76155;SDS011;64906;51.290;7.348;2023-02-01T07:57:46;44.10;;;18.05;;
76155;SDS011;64906;51.290;7.348;2023-02-01T08:00:12;43.55;;;18.23;;
76155;SDS011;64906;51.290;7.348;2023-02-01T08:02:58;47.03;;;20.08;;
76155;SDS011;64906;51.290;7.348;2023-02-01T08:05:24;52.80;;;23.67;;
76155;SDS011;64906;51.290;7.348;2023-02-01T08:07:51;46.72;;;20.85;;
76155;SDS011;64906;51.290;7.348;2023-02-01T08:10:17;57.58;;;24.70;;
76155;SDS011;64906;51.290;7.348;2023-02-01T08:12:44;57.70;;;25.90;;
76155;SDS011;64906;51.290;7.348;2023-02-01T08:15:15;48.00;;;25.25;;
76155;SDS011;64906;51.290;7.348;2023-02-01T08:17:49;49.00;;;23.42;;
76155;SDS011;64906;51.290;7.348;2023-02-01T08:20:16;57.28;;;24.33;;
76155;SDS011;64906;51.290;7.348;2023-02-01T08:22:43;52.15;;;23.02;;
76155;SDS011;64906;51.290;7.348;2023-02-01T08:25:09;56.10;;;23.77;;
76155;SDS011;64906;51.290;7.348;2023-02-01T08:27:35;68.05;;;34.10;;
76155;SDS011;64906;51.290;7.348;2023-02-01T08:30:03;130.13;;;61.70;;
76155;SDS011;64906;51.290;7.348;2023-02-01T08:32:29;98.18;;;46.22;;
76155;SDS011;64906;51.290;7.348;2023-02-01T08:34:55;107.10;;;51.35;;
76155;SDS011;64906;51.290;7.348;2023-02-01T08:37:21;118.28;;;56.35;;
76155;SDS011;64906;51.290;7.348;2023-02-01T08:39:47;117.60;;;52.80;;
76155;SDS011;64906;51.290;7.348;2023-02-01T08:42:15;108.43;;;51.50;;
76155;SDS011;64906;51.290;7.348;2023-02-01T08:45:00;97.43;;;50.40;;
76155;SDS011;64906;51.290;7.348;2023-02-01T08:47:27;101.78;;;50.22;;
76155;SDS011;64906;51.290;7.348;2023-02-01T08:49:54;110.78;;;51.45;;
76155;SDS011;64906;51.290;7.348;2023-02-01T08:52:20;114.18;;;56.05;;
76155;SDS011;64906;51.290;7.348;2023-02-01T08:54:46;104.97;;;51.20;;
76155;SDS011;64906;51.290;7.348;2023-02-01T08:57:11;114.63;;;56.70;;
76155;SDS011;64906;51.290;7.348;2023-02-01T08:59:38;115.93;;;59.30;;
76155;SDS011;64906;51.290;7.348;2023-02-01T09:02:04;128.40;;;62.88;;
76155;SDS011;64906;51.290;7.348;2023-02-01T09:04:30;119.28;;;58.20;;
76155;SDS011;64906;51.290;7.348;2023-02-01T09:06:56;124.50;;;59.90;;
76155;SDS011;64906;51.290;7.348;2023-02-01T09:09:22;112.40;;;57.92;;
76155;SDS011;64906;51.290;7.348;2023-02-01T09:11:49;120.30;;;62.05;;
76155;SDS011;64906;51.290;7.348;2023-02-01T09:14:17;130.70;;;62.72;;
76155;SDS011;64906;51.290;7.348;2023-02-01T09:16:43;116.35;;;61.35;;
76155;SDS011;64906;51.290;7.348;2023-02-01T09:19:09;124.03;;;61.47;;
76155;SDS011;64906;51.290;7.348;2023-02-01T09:21:35;122.60;;;64.60;;
76155;SDS011;64906;51.290;7.348;2023-02-01T09:24:01;130.95;;;68.15;;
76155;SDS011;64906;51.290;7.348;2023-02-01T09:26:27;123.78;;;61.47;;
76155;SDS011;64906;51.290;7.348;2023-02-01T09:28:53;156.77;;;78.13;;
76155;SDS011;64906;51.290;7.348;2023-02-01T09:31:19;188.43;;;105.15;;
76155;SDS011;64906;51.290;7.348;2023-02-01T09:33:44;240.25;;;135.63;;
76155;SDS011;64906;51.290;7.348;2023-02-01T09:36:10;240.75;;;128.30;;
76155;SDS011;64906;51.290;7.348;2023-02-01T09:38:36;247.45;;;127.78;;
76155;SDS011;64906;51.290;7.348;2023-02-01T09:41:06;219.77;;;119.15;;
76155;SDS011;64906;51.290;7.348;2023-02-01T09:43:56;219.13;;;115.18;;
76155;SDS011;64906;51.290;7.348;2023-02-01T09:46:32;201.48;;;100.30;;
76155;SDS011;64906;51.290;7.348;2023-02-01T09:49:04;196.63;;;91.28;;
76155;SDS011;64906;51.290;7.348;2023-02-01T09:51:51;209.80;;;93.50;;
76155;SDS011;64906;51.290;7.348;2023-02-01T09:54:20;197.32;;;89.30;;
76155;SDS011;64906;51.290;7.348;2023-02-01T09:57:00;188.20;;;88.82;;
76155;SDS011;64906;51.290;7.348;2023-02-01T09:59:38;205.48;;;88.93;;
76155;SDS011;64906;51.290;7.348;2023-02-01T10:02:16;182.65;;;83.32;;
76155;SDS011;64906;51.290;7.348;2023-02-01T10:04:46;163.95;;;47.97;;
76155;SDS011;64906;51.290;7.348;2023-02-01T10:10:03;157.00;;;45.75;;
76155;SDS011;64906;51.290;7.348;2023-02-01T10:26:55;159.98;;;51.00;;
76155;SDS011;64906;51.290;7.348;2023-02-01T10:29:27;200.65;;;69.65;;
76155;SDS011;64906;51.290;7.348;2023-02-01T10:31:59;197.57;;;67.28;;
76155;SDS011;64906;51.290;7.348;2023-02-01T10:34:27;188.05;;;70.63;;
76155;SDS011;64906;51.290;7.348;2023-02-01T10:37:18;188.25;;;69.50;;
76155;SDS011;64906;51.290;7.348;2023-02-01T10:39:57;188.38;;;66.38;;
76155;SDS011;64906;51.290;7.348;2023-02-01T10:42:27;182.38;;;67.68;;
76155;SDS011;64906;51.290;7.348;2023-02-01T10:44:59;183.65;;;69.28;;
76155;SDS011;64906;51.290;7.348;2023-02-01T10:47:27;186.82;;;63.70;;
76155;SDS011;64906;51.290;7.348;2023-02-01T10:52:47;285.77;;;77.20;;
76155;SDS011;64906;51.290;7.348;2023-02-01T10:55:35;290.75;;;77.57;;
76155;SDS011;64906;51.290;7.348;2023-02-01T10:58:03;243.48;;;67.03;;
76155;SDS011;64906;51.290;7.348;2023-02-01T11:00:38;250.40;;;63.97;;
76155;SDS011;64906;51.290;7.348;2023-02-01T11:06:10;224.85;;;63.00;;
76155;SDS011;64906;51.290;7.348;2023-02-01T11:08:58;253.13;;;59.22;;
76155;SDS011;64906;51.290;7.348;2023-02-01T11:14:16;230.25;;;58.20;;
76155;SDS011;64906;51.290;7.348;2023-02-01T11:16:57;218.57;;;57.17;;
76155;SDS011;64906;51.290;7.348;2023-02-01T11:19:28;216.23;;;55.17;;
76155;SDS011;64906;51.290;7.348;2023-02-01T11:21:54;184.38;;;51.67;;
76155;SDS011;64906;51.290;7.348;2023-02-01T11:26:56;207.63;;;49.80;;
76155;SDS011;64906;51.290;7.348;2023-02-01T11:29:23;197.55;;;49.42;;
76155;SDS011;64906;51.290;7.348;2023-02-01T11:31:58;178.10;;;49.33;;
76155;SDS011;64906;51.290;7.348;2023-02-01T11:34:36;198.77;;;52.25;;
76155;SDS011;64906;51.290;7.348;2023-02-01T11:37:05;184.45;;;46.63;;
76155;SDS011;64906;51.290;7.348;2023-02-01T11:39:53;185.80;;;45.75;;
76155;SDS011;64906;51.290;7.348;2023-02-01T11:42:23;176.90;;;44.50;;
76155;SDS011;64906;51.290;7.348;2023-02-01T11:44:49;188.32;;;43.78;;
76155;SDS011;64906;51.290;7.348;2023-02-01T11:47:20;167.23;;;42.63;;
76155;SDS011;64906;51.290;7.348;2023-02-01T11:49:58;160.40;;;40.15;;
76155;SDS011;64906;51.290;7.348;2023-02-01T11:55:28;150.20;;;38.85;;
76155;SDS011;64906;51.290;7.348;2023-02-01T11:57:58;148.68;;;38.50;;
76155;SDS011;64906;51.290;7.348;2023-02-01T12:06:17;137.45;;;34.20;;
76155;SDS011;64906;51.290;7.348;2023-02-01T12:09:47;135.75;;;33.45;;
76155;SDS011;64906;51.290;7.348;2023-02-01T12:11:57;141.02;;;34.70;;
76155;SDS011;64906;51.290;7.348;2023-02-01T12:14:41;139.23;;;34.97;;
76155;SDS011;64906;51.290;7.348;2023-02-01T12:17:32;123.60;;;32.72;;
76155;SDS011;64906;51.290;7.348;2023-02-01T12:23:33;128.75;;;30.13;;
76155;SDS011;64906;51.290;7.348;2023-02-01T12:26:42;132.13;;;30.75;;
76155;SDS011;64906;51.290;7.348;2023-02-01T12:43:12;125.18;;;27.63;;
76155;SDS011;64906;51.290;7.348;2023-02-01T12:45:55;109.32;;;24.27;;
76155;SDS011;64906;51.290;7.348;2023-02-01T12:48:34;104.72;;;24.42;;
76155;SDS011;64906;51.290;7.348;2023-02-01T12:51:11;112.05;;;24.48;;
76155;SDS011;64906;51.290;7.348;2023-02-01T12:53:49;109.70;;;23.73;;
76155;SDS011;64906;51.290;7.348;2023-02-01T12:59:19;125.22;;;23.38;;
76155;SDS011;64906;51.290;7.348;2023-02-01T13:01:52;113.18;;;22.67;;
76155;SDS011;64906;51.290;7.348;2023-02-01T13:04:46;121.80;;;22.98;;
76155;SDS011;64906;51.290;7.348;2023-02-01T13:07:22;113.55;;;23.85;;
76155;SDS011;64906;51.290;7.348;2023-02-01T13:10:42;110.70;;;22.17;;
76155;SDS011;64906;51.290;7.348;2023-02-01T13:13:14;100.85;;;22.15;;
76155;SDS011;64906;51.290;7.348;2023-02-01T13:15:49;89.18;;;20.20;;
76155;SDS011;64906;51.290;7.348;2023-02-01T13:18:18;105.07;;;22.20;;
76155;SDS011;64906;51.290;7.348;2023-02-01T13:23:27;104.03;;;20.27;;
76155;SDS011;64906;51.290;7.348;2023-02-01T13:25:56;112.68;;;20.50;;
76155;SDS011;64906;51.290;7.348;2023-02-01T13:28:28;97.18;;;20.13;;
76155;SDS011;64906;51.290;7.348;2023-02-01T13:37:06;97.07;;;18.08;;
76155;SDS011;64906;51.290;7.348;2023-02-01T13:44:57;86.22;;;18.13;;
76155;SDS011;64906;51.290;7.348;2023-02-01T13:47:34;103.03;;;17.00;;
76155;SDS011;64906;51.290;7.348;2023-02-01T13:52:56;96.68;;;17.35;;
76155;SDS011;64906;51.290;7.348;2023-02-01T13:55:26;89.15;;;16.00;;
76155;SDS011;64906;51.290;7.348;2023-02-01T13:58:00;89.53;;;16.92;;
76155;SDS011;64906;51.290;7.348;2023-02-01T14:00:36;83.75;;;15.48;;
76155;SDS011;64906;51.290;7.348;2023-02-01T14:23:41;83.25;;;14.13;;
76155;SDS011;64906;51.290;7.348;2023-02-01T14:26:11;90.43;;;14.27;;
76155;SDS011;64906;51.290;7.348;2023-02-01T14:28:45;71.68;;;12.98;;
76155;SDS011;64906;51.290;7.348;2023-02-01T14:31:17;67.68;;;13.55;;
76155;SDS011;64906;51.290;7.348;2023-02-01T14:34:19;84.05;;;14.75;;
76155;SDS011;64906;51.290;7.348;2023-02-01T14:37:03;78.13;;;12.57;;
76155;SDS011;64906;51.290;7.348;2023-02-01T14:42:15;63.17;;;11.80;;
76155;SDS011;64906;51.290;7.348;2023-02-01T14:44:48;74.55;;;13.13;;
76155;SDS011;64906;51.290;7.348;2023-02-01T14:49:52;81.20;;;12.40;;
76155;SDS011;64906;51.290;7.348;2023-02-01T14:52:36;91.75;;;12.75;;
76155;SDS011;64906;51.290;7.348;2023-02-01T15:06:36;77.35;;;12.07;;
76155;SDS011;64906;51.290;7.348;2023-02-01T15:12:13;69.25;;;10.68;;
76155;SDS011;64906;51.290;7.348;2023-02-01T15:15:12;59.70;;;10.77;;
76155;SDS011;64906;51.290;7.348;2023-02-01T15:17:49;69.05;;;11.13;;
76155;SDS011;64906;51.290;7.348;2023-02-01T15:20:21;72.95;;;10.35;;
76155;SDS011;64906;51.290;7.348;2023-02-01T15:22:59;64.10;;;10.90;;
76155;SDS011;64906;51.290;7.348;2023-02-01T15:25:33;59.60;;;10.50;;
76155;SDS011;64906;51.290;7.348;2023-02-01T15:28:02;60.70;;;11.68;;
76155;SDS011;64906;51.290;7.348;2023-02-01T15:30:30;88.47;;;15.85;;
76155;SDS011;64906;51.290;7.348;2023-02-01T15:35:40;68.63;;;12.60;;
76155;SDS011;64906;51.290;7.348;2023-02-01T15:43:27;89.05;;;12.43;;
76155;SDS011;64906;51.290;7.348;2023-02-01T15:45:56;82.53;;;12.02;;
76155;SDS011;64906;51.290;7.348;2023-02-01T15:48:24;81.97;;;13.02;;
76155;SDS011;64906;51.290;7.348;2023-02-01T15:50:54;69.38;;;13.70;;
76155;SDS011;64906;51.290;7.348;2023-02-01T15:53:22;78.55;;;13.85;;
76155;SDS011;64906;51.290;7.348;2023-02-01T15:55:53;76.43;;;14.10;;
76155;SDS011;64906;51.290;7.348;2023-02-01T15:58:23;71.32;;;13.45;;
76155;SDS011;64906;51.290;7.348;2023-02-01T16:00:50;80.75;;;14.95;;
76155;SDS011;64906;51.290;7.348;2023-02-01T16:03:27;97.72;;;17.35;;
76155;SDS011;64906;51.290;7.348;2023-02-01T16:06:00;81.57;;;21.25;;
76155;SDS011;64906;51.290;7.348;2023-02-01T16:08:28;83.18;;;18.55;;
76155;SDS011;64906;51.290;7.348;2023-02-01T16:13:33;84.97;;;17.38;;
76155;SDS011;64906;51.290;7.348;2023-02-01T16:16:00;86.65;;;20.02;;
76155;SDS011;64906;51.290;7.348;2023-02-01T16:18:26;97.00;;;18.55;;
76155;SDS011;64906;51.290;7.348;2023-02-01T16:20:52;95.30;;;21.75;;
76155;SDS011;64906;51.290;7.348;2023-02-01T16:23:18;95.00;;;18.88;;
76155;SDS011;64906;51.290;7.348;2023-02-01T16:25:45;91.13;;;21.30;;
76155;SDS011;64906;51.290;7.348;2023-02-01T16:28:11;80.35;;;21.50;;
76155;SDS011;64906;51.290;7.348;2023-02-01T16:30:37;92.90;;;21.45;;
76155;SDS011;64906;51.290;7.348;2023-02-01T16:33:03;83.88;;;20.73;;
76155;SDS011;64906;51.290;7.348;2023-02-01T16:35:37;107.30;;;30.90;;
76155;SDS011;64906;51.290;7.348;2023-02-01T16:38:03;97.72;;;26.27;;
76155;SDS011;64906;51.290;7.348;2023-02-01T16:40:37;94.97;;;23.83;;
76155;SDS011;64906;51.290;7.348;2023-02-01T16:43:23;116.88;;;28.45;;
76155;SDS011;64906;51.290;7.348;2023-02-01T16:45:52;99.43;;;30.38;;
76155;SDS011;64906;51.290;7.348;2023-02-01T16:50:59;125.05;;;40.17;;
76155;SDS011;64906;51.290;7.348;2023-02-01T16:53:29;138.10;;;45.03;;
76155;SDS011;64906;51.290;7.348;2023-02-01T16:55:56;110.15;;;35.45;;
76155;SDS011;64906;51.290;7.348;2023-02-01T16:58:23;105.70;;;35.10;;
76155;SDS011;64906;51.290;7.348;2023-02-01T17:00:50;115.43;;;32.63;;
76155;SDS011;64906;51.290;7.348;2023-02-01T17:03:17;108.65;;;35.08;;
76155;SDS011;64906;51.290;7.348;2023-02-01T17:05:45;116.45;;;33.58;;
76155;SDS011;64906;51.290;7.348;2023-02-01T17:08:24;104.38;;;31.27;;
76155;SDS011;64906;51.290;7.348;2023-02-01T17:11:03;113.68;;;31.83;;
76155;SDS011;64906;51.290;7.348;2023-02-01T17:13:30;106.97;;;33.80;;
76155;SDS011;64906;51.290;7.348;2023-02-01T17:18:22;119.03;;;39.60;;
76155;SDS011;64906;51.290;7.348;2023-02-01T17:20:50;124.25;;;41.08;;
76155;SDS011;64906;51.290;7.348;2023-02-01T17:23:18;110.80;;;34.13;;
76155;SDS011;64906;51.290;7.348;2023-02-01T17:25:44;128.10;;;43.45;;